»·PEaware :: N711BB KSNA-KCRQ

N711BB :: KSNA-KCRQ

FLIGHT INFORMATION

Flight Status: Arrived
Operator: Privately registered:
United States
More flights under this callsign
Pilot: Klaus K. (15267)
Aircraft: CESSNA 182 SKYLANE
(C182)
More flights by this aircraft type
Origin: KSNA John Wayne-Orange Co
United States
Destination: KCRQ McClellan-Palomar
United States
More flights between these airports :: More routes between these airports
Route: +V23 OCN
File this flight plan on PilotEdge
Remarks:
Altitude:
(Current/Filed)
5,000ft
Speed:
(Current/Filed)
130kts
Departed: 12-Aug-17 02:51 PM
Arrived: 12-Aug-17 04:12 PM
Distance/Time
Traveled:
44nm/1:21
Distance/Time
To Go:
Arrived

Flight Plot

Page will automatically refresh every two minutes.


Map Options




Map Legend


Flown Route
Filed Route
Departure Airport
Arrival Airport
Navaid (VOR, NDB)
Fix

Horizontal Profiles

Position Reports

Time Latitude Longitude Heading Altitude Ground
Speed
12-Aug-17 14:14 33.675262 -117.871309 219 59ft 0kts
12-Aug-17 14:15 33.675262 -117.871309 219 59ft 0kts
12-Aug-17 14:16 33.675262 -117.871309 219 59ft 0kts
12-Aug-17 14:17 33.675262 -117.871309 219 59ft 0kts
12-Aug-17 14:18 33.675262 -117.871309 219 59ft 0kts
12-Aug-17 14:19 33.675262 -117.871309 219 59ft 0kts
12-Aug-17 14:20 33.675262 -117.871309 219 59ft 0kts
12-Aug-17 14:21 33.675262 -117.871309 219 59ft 0kts
12-Aug-17 14:22 33.675262 -117.871309 219 59ft 0kts
12-Aug-17 14:23 33.675258 -117.871312 219 59ft 0kts
12-Aug-17 14:24 33.675254 -117.871317 219 59ft 0kts
12-Aug-17 14:25 33.675249 -117.871321 219 59ft 0kts
12-Aug-17 14:26 33.675245 -117.871326 219 59ft 0kts
12-Aug-17 14:27 33.675240 -117.871330 219 59ft 0kts
12-Aug-17 14:28 33.675236 -117.871335 219 59ft 0kts
12-Aug-17 14:29 33.675232 -117.871339 219 59ft 0kts
12-Aug-17 14:30 33.675228 -117.871342 219 59ft 0kts
12-Aug-17 14:31 33.675225 -117.871346 219 59ft 0kts
12-Aug-17 14:32 33.675222 -117.871349 219 59ft 0kts
12-Aug-17 14:33 33.675219 -117.871352 219 59ft 0kts
12-Aug-17 14:34 33.675215 -117.871355 219 59ft 0kts
12-Aug-17 14:35 33.675212 -117.871359 219 59ft 0kts
12-Aug-17 14:36 33.675209 -117.871362 219 59ft 0kts
12-Aug-17 14:37 33.675206 -117.871365 219 59ft 0kts
12-Aug-17 14:38 33.675203 -117.871368 219 59ft 0kts
12-Aug-17 14:39 33.675199 -117.871371 219 59ft 0kts
12-Aug-17 14:41 33.675196 -117.871374 219 59ft 0kts
12-Aug-17 14:42 33.675193 -117.871378 219 59ft 0kts
12-Aug-17 14:43 33.675190 -117.871381 219 59ft 0kts
12-Aug-17 14:44 33.675187 -117.871384 219 59ft 0kts
12-Aug-17 14:45 33.675184 -117.871387 219 59ft 0kts
12-Aug-17 14:46 33.675180 -117.871390 219 59ft 0kts
12-Aug-17 14:47 33.675177 -117.871394 219 59ft 0kts
12-Aug-17 14:48 33.675174 -117.871397 219 59ft 0kts
12-Aug-17 14:49 33.675031 -117.871353 118 59ft 4kts
12-Aug-17 14:50 33.677157 -117.869492 27 59ft 6kts
12-Aug-17 14:51 33.678718 -117.868530 28 59ft 15kts
12-Aug-17 14:52 33.680863 -117.866544 117 59ft 0kts
12-Aug-17 14:53 33.680862 -117.866541 117 59ft 0kts
12-Aug-17 14:54 33.680860 -117.866538 117 59ft 0kts
12-Aug-17 14:55 33.679177 -117.866581 208 59ft 46kts
12-Aug-17 14:56 33.660392 -117.876616 195 1022ft 81kts
12-Aug-17 14:57 33.636748 -117.879837 183 2161ft 94kts
12-Aug-17 14:58 33.606803 -117.882274 184 2981ft 116kts
12-Aug-17 14:59 33.573315 -117.883191 152 4032ft 123kts
12-Aug-17 15:00 33.558888 -117.849446 113 4899ft 109kts
12-Aug-17 15:01 33.545884 -117.811227 113 5007ft 136kts
12-Aug-17 15:02 33.530515 -117.768342 120 5001ft 141kts
12-Aug-17 15:03 33.510022 -117.727755 129 5001ft 141kts
12-Aug-17 15:04 33.483656 -117.691990 135 5009ft 147kts
12-Aug-17 15:05 33.453981 -117.658794 137 5010ft 147kts
12-Aug-17 15:06 33.426022 -117.624057 133 5008ft 143kts
12-Aug-17 15:07 33.398562 -117.587999 136 5020ft 152kts
12-Aug-17 15:08 33.368945 -117.552816 136 5019ft 150kts
12-Aug-17 15:09 33.339435 -117.520537 138 5012ft 139kts
12-Aug-17 15:10 33.311372 -117.489252 138 5020ft 137kts
12-Aug-17 15:10 33.288802 -117.462122 134 5027ft 140kts
12-Aug-17 15:12 33.256515 -117.422228 137 5013ft 141kts
12-Aug-17 15:12 33.232356 -117.395867 140 5004ft 142kts
12-Aug-17 15:14 33.198849 -117.362818 94 5002ft 144kts
12-Aug-17 15:14 33.197237 -117.322929 93 4997ft 146kts
12-Aug-17 15:15 33.195398 -117.274820 93 5000ft 146kts
12-Aug-17 15:16 33.193585 -117.226715 93 4999ft 146kts
12-Aug-17 15:17 33.194233 -117.178739 87 4996ft 144kts
12-Aug-17 15:18 33.196586 -117.130357 87 5005ft 150kts
12-Aug-17 15:19 33.198956 -117.082061 87 4982ft 139kts
12-Aug-17 15:29 33.675510 -117.871693 114 59ft 0kts
12-Aug-17 15:30 33.675509 -117.871692 114 59ft 0kts
12-Aug-17 15:31 33.675509 -117.871690 114 59ft 0kts
12-Aug-17 15:32 33.675508 -117.871689 114 59ft 0kts
12-Aug-17 15:33 33.675507 -117.871685 114 59ft 0kts
12-Aug-17 15:34 33.675505 -117.871680 114 59ft 0kts
12-Aug-17 15:35 33.675503 -117.871676 114 59ft 0kts
12-Aug-17 15:36 33.677293 -117.869396 26 59ft 12kts
12-Aug-17 15:37 33.681013 -117.867036 68 59ft 13kts
12-Aug-17 15:38 33.680870 -117.866516 119 59ft 0kts
12-Aug-17 15:39 33.679840 -117.866133 208 59ft 35kts
12-Aug-17 15:40 33.662967 -117.873875 189 907ft 84kts
12-Aug-17 15:41 33.638107 -117.877547 187 2124ft 101kts
12-Aug-17 15:42 33.608843 -117.882027 188 3328ft 111kts
12-Aug-17 15:43 33.580942 -117.886256 187 4361ft 98kts
12-Aug-17 15:44 33.552944 -117.890217 188 5002ft 118kts
12-Aug-17 15:45 33.518721 -117.881972 140 5004ft 141kts
12-Aug-17 15:46 33.500754 -117.839928 123 5004ft 145kts
12-Aug-17 15:47 33.479138 -117.798908 125 5002ft 145kts
12-Aug-17 15:48 33.454526 -117.760419 128 5003ft 145kts
12-Aug-17 15:49 33.430224 -117.721432 127 5003ft 145kts
12-Aug-17 15:50 33.406008 -117.682538 127 5004ft 145kts
12-Aug-17 15:51 33.381782 -117.643623 127 5005ft 146kts
12-Aug-17 15:52 33.357451 -117.604579 127 5006ft 146kts
12-Aug-17 15:53 33.333198 -117.565697 127 5009ft 146kts
12-Aug-17 15:54 33.309186 -117.526584 117 5004ft 147kts
12-Aug-17 15:55 33.303516 -117.477992 97 5011ft 148kts
12-Aug-17 15:56 33.298852 -117.429243 97 4999ft 147kts
12-Aug-17 15:57 33.294180 -117.380835 97 4990ft 146kts
12-Aug-17 15:58 33.289591 -117.332194 97 4978ft 146kts
12-Aug-17 15:59 33.285100 -117.284408 97 4983ft 145kts
12-Aug-17 16:00 33.280442 -117.235008 97 4979ft 148kts
12-Aug-17 16:01 33.275821 -117.187094 97 4979ft 143kts
12-Aug-17 16:02 33.271349 -117.139666 97 4993ft 145kts
12-Aug-17 16:03 33.266667 -117.090393 97 4990ft 147kts
12-Aug-17 16:04 33.253239 -117.048136 152 4773ft 139kts
12-Aug-17 16:05 33.221943 -117.028524 153 4076ft 125kts
12-Aug-17 16:06 33.190368 -117.019280 212 3721ft 128kts
12-Aug-17 16:07 33.165926 -117.048020 234 3561ft 116kts
12-Aug-17 16:08 33.160182 -117.083172 256 3561ft 110kts
12-Aug-17 16:09 33.154408 -117.118137 258 3042ft 108kts
12-Aug-17 16:10 33.148657 -117.152150 260 2507ft 107kts
12-Aug-17 16:11 33.143055 -117.186583 258 1890ft 91kts
12-Aug-17 16:12 33.138520 -117.215461 259 1393ft 80kts
12-Aug-17 16:13 33.134344 -117.241259 260 921ft 76kts
12-Aug-17 16:14 33.130504 -117.266163 261 456ft 73kts
12-Aug-17 16:15 33.127822 -117.282235 234 303ft 13kts
12-Aug-17 16:16 33.126986 -117.283242 218 303ft 0kts
12-Aug-17 16:17 33.127398 -117.280090 79 303ft 12kts
12-Aug-17 16:18 33.127921 -117.276765 80 303ft 11kts
12-Aug-17 16:19 33.127516 -117.276280 254 303ft 0kts

Navigation Log

Ident Type
1. KSNA Airport
2. OCN Navaid
3. KCRQ Airport